Terminal Aerodrome Forecast
Issued by NWS Shreveport, LA

Home | Current Version | Previous Version | Text Only | Print | Product List | Glossary On
Versions: 1 2 3 4 5 6 7 8 9 10 11 12 13 14 15
000
FTUS44 KSHV 230100 AAA
TAFELD
TAF AMD
KELD 230143Z 2302/2324 00000KT 3SM BR SCT002 SCT035 OVC250
      TEMPO 2302/2305 1/2SM FG BKN002
     FM230500 VRB03KT 4SM BR SCT002 BKN130
     FM230700 VRB03KT 4SM BR BKN100
      TEMPO 2308/2310 -RA BKN020
     FM231000 VRB03KT P6SM VCSH BKN020
     FM231500 02006KT 6SM -RA BR OVC014
     FM231800 36008KT 4SM -RA BR OVC008=

USA.gov is the U.S. government's official web portal to all federal, state and local government web resources and services.